sensor_id;sensor_type;location;lat;lon;timestamp;temperature;humidity
4908;DHT22;64375;51.540;7.364;2023-02-01T00:00:35;12.90;92.90
4908;DHT22;64375;51.540;7.364;2023-02-01T00:03:03;12.70;92.20
4908;DHT22;64375;51.540;7.364;2023-02-01T00:05:38;12.90;93.90
4908;DHT22;64375;51.540;7.364;2023-02-01T00:08:08;13.20;93.80
4908;DHT22;64375;51.540;7.364;2023-02-01T00:10:46;12.90;93.10
4908;DHT22;64375;51.540;7.364;2023-02-01T00:13:17;12.90;93.50
4908;DHT22;64375;51.540;7.364;2023-02-01T00:15:46;12.80;93.60
4908;DHT22;64375;51.540;7.364;2023-02-01T00:18:17;13.10;94.00
4908;DHT22;64375;51.540;7.364;2023-02-01T00:20:45;13.20;93.70
4908;DHT22;64375;51.540;7.364;2023-02-01T00:23:13;13.20;93.50
4908;DHT22;64375;51.540;7.364;2023-02-01T00:25:41;13.10;92.80
4908;DHT22;64375;51.540;7.364;2023-02-01T00:28:09;13.10;93.70
4908;DHT22;64375;51.540;7.364;2023-02-01T00:30:46;13.10;93.40
4908;DHT22;64375;51.540;7.364;2023-02-01T00:33:15;13.30;93.70
4908;DHT22;64375;51.540;7.364;2023-02-01T00:35:42;13.30;93.50
4908;DHT22;64375;51.540;7.364;2023-02-01T00:38:12;13.50;92.60
4908;DHT22;64375;51.540;7.364;2023-02-01T00:40:40;13.10;90.50
4908;DHT22;64375;51.540;7.364;2023-02-01T00:43:08;13.10;91.60
4908;DHT22;64375;51.540;7.364;2023-02-01T00:45:38;12.90;92.60
4908;DHT22;64375;51.540;7.364;2023-02-01T00:48:16;12.70;93.40
4908;DHT22;64375;51.540;7.364;2023-02-01T00:50:44;12.80;91.00
4908;DHT22;64375;51.540;7.364;2023-02-01T00:53:15;12.40;92.80
4908;DHT22;64375;51.540;7.364;2023-02-01T00:55:44;12.50;93.60
4908;DHT22;64375;51.540;7.364;2023-02-01T00:58:13;12.70;94.10
4908;DHT22;64375;51.540;7.364;2023-02-01T01:00:41;12.70;91.50
4908;DHT22;64375;51.540;7.364;2023-02-01T01:03:16;12.60;94.00
4908;DHT22;64375;51.540;7.364;2023-02-01T01:05:59;12.60;93.30
4908;DHT22;64375;51.540;7.364;2023-02-01T01:08:27;12.60;93.30
4908;DHT22;64375;51.540;7.364;2023-02-01T01:10:55;12.70;92.00
4908;DHT22;64375;51.540;7.364;2023-02-01T01:13:24;12.60;91.50
4908;DHT22;64375;51.540;7.364;2023-02-01T01:15:52;12.70;93.70
4908;DHT22;64375;51.540;7.364;2023-02-01T01:18:21;12.80;92.20
4908;DHT22;64375;51.540;7.364;2023-02-01T01:20:49;12.60;90.00
4908;DHT22;64375;51.540;7.364;2023-02-01T01:23:19;12.50;90.90
4908;DHT22;64375;51.540;7.364;2023-02-01T01:25:47;12.20;93.40
4908;DHT22;64375;51.540;7.364;2023-02-01T01:28:16;12.30;93.70
4908;DHT22;64375;51.540;7.364;2023-02-01T01:30:43;12.50;93.80
4908;DHT22;64375;51.540;7.364;2023-02-01T01:33:14;12.50;93.80
4908;DHT22;64375;51.540;7.364;2023-02-01T01:35:51;12.50;90.70
4908;DHT22;64375;51.540;7.364;2023-02-01T01:38:21;12.40;92.00
4908;DHT22;64375;51.540;7.364;2023-02-01T01:40:52;12.40;91.50
4908;DHT22;64375;51.540;7.364;2023-02-01T01:43:20;12.70;93.50
4908;DHT22;64375;51.540;7.364;2023-02-01T01:45:58;12.90;91.00
4908;DHT22;64375;51.540;7.364;2023-02-01T01:48:35;12.80;93.30
4908;DHT22;64375;51.540;7.364;2023-02-01T01:51:08;12.90;93.00
4908;DHT22;64375;51.540;7.364;2023-02-01T01:53:43;13.10;91.10
4908;DHT22;64375;51.540;7.364;2023-02-01T01:56:14;13.40;92.90
4908;DHT22;64375;51.540;7.364;2023-02-01T01:58:42;13.20;91.40
4908;DHT22;64375;51.540;7.364;2023-02-01T02:01:19;13.20;92.50
4908;DHT22;64375;51.540;7.364;2023-02-01T02:03:57;13.20;89.40
4908;DHT22;64375;51.540;7.364;2023-02-01T02:06:38;13.10;92.20
4908;DHT22;64375;51.540;7.364;2023-02-01T02:09:08;12.90;92.00
4908;DHT22;64375;51.540;7.364;2023-02-01T02:11:42;13.00;93.10
4908;DHT22;64375;51.540;7.364;2023-02-01T02:14:15;12.90;91.30
4908;DHT22;64375;51.540;7.364;2023-02-01T02:23:34;13.10;92.70
4908;DHT22;64375;51.540;7.364;2023-02-01T02:35:40;13.20;92.00
4908;DHT22;64375;51.540;7.364;2023-02-01T02:38:17;13.40;92.70
4908;DHT22;64375;51.540;7.364;2023-02-01T02:41:02;13.60;91.60
4908;DHT22;64375;51.540;7.364;2023-02-01T02:43:37;13.50;92.40
4908;DHT22;64375;51.540;7.364;2023-02-01T02:46:37;13.60;92.30
4908;DHT22;64375;51.540;7.364;2023-02-01T02:49:39;13.40;91.30
4908;DHT22;64375;51.540;7.364;2023-02-01T02:52:13;13.40;91.60
4908;DHT22;64375;51.540;7.364;2023-02-01T02:55:04;12.90;91.60
4908;DHT22;64375;51.540;7.364;2023-02-01T02:57:37;12.60;91.20
4908;DHT22;64375;51.540;7.364;2023-02-01T03:00:28;12.70;93.00
4908;DHT22;64375;51.540;7.364;2023-02-01T03:03:14;12.70;92.20
4908;DHT22;64375;51.540;7.364;2023-02-01T03:06:01;13.00;93.00
4908;DHT22;64375;51.540;7.364;2023-02-01T03:08:30;12.90;90.80
4908;DHT22;64375;51.540;7.364;2023-02-01T03:11:04;12.90;89.60
4908;DHT22;64375;51.540;7.364;2023-02-01T03:13:38;13.00;91.90
4908;DHT22;64375;51.540;7.364;2023-02-01T03:16:16;13.00;92.40
4908;DHT22;64375;51.540;7.364;2023-02-01T03:18:57;13.30;91.80
4908;DHT22;64375;51.540;7.364;2023-02-01T03:21:31;13.00;90.30
4908;DHT22;64375;51.540;7.364;2023-02-01T03:24:07;13.00;92.00
4908;DHT22;64375;51.540;7.364;2023-02-01T03:26:41;12.70;90.40
4908;DHT22;64375;51.540;7.364;2023-02-01T03:29:17;12.70;92.90
4908;DHT22;64375;51.540;7.364;2023-02-01T03:31:49;12.70;89.50
4908;DHT22;64375;51.540;7.364;2023-02-01T03:34:24;12.80;92.60
4908;DHT22;64375;51.540;7.364;2023-02-01T03:36:59;13.00;92.90
4908;DHT22;64375;51.540;7.364;2023-02-01T03:39:36;13.20;92.70
4908;DHT22;64375;51.540;7.364;2023-02-01T03:42:09;13.20;91.70
4908;DHT22;64375;51.540;7.364;2023-02-01T03:44:40;13.40;90.90
4908;DHT22;64375;51.540;7.364;2023-02-01T03:47:23;13.40;92.70
4908;DHT22;64375;51.540;7.364;2023-02-01T03:49:57;13.50;91.60
4908;DHT22;64375;51.540;7.364;2023-02-01T03:52:30;13.30;91.90
4908;DHT22;64375;51.540;7.364;2023-02-01T03:55:03;13.10;89.00
4908;DHT22;64375;51.540;7.364;2023-02-01T03:57:41;13.10;92.70
4908;DHT22;64375;51.540;7.364;2023-02-01T04:00:16;13.20;90.60
4908;DHT22;64375;51.540;7.364;2023-02-01T04:02:48;13.00;90.80
4908;DHT22;64375;51.540;7.364;2023-02-01T04:05:19;12.90;89.60
4908;DHT22;64375;51.540;7.364;2023-02-01T04:07:49;12.60;90.50
4908;DHT22;64375;51.540;7.364;2023-02-01T04:10:27;12.80;92.30
4908;DHT22;64375;51.540;7.364;2023-02-01T04:12:58;13.00;92.50
4908;DHT22;64375;51.540;7.364;2023-02-01T04:15:26;13.30;91.40
4908;DHT22;64375;51.540;7.364;2023-02-01T04:17:57;13.60;92.30
4908;DHT22;64375;51.540;7.364;2023-02-01T04:20:27;13.50;92.00
4908;DHT22;64375;51.540;7.364;2023-02-01T04:23:01;13.50;91.70
4908;DHT22;64375;51.540;7.364;2023-02-01T04:25:41;13.50;91.50
4908;DHT22;64375;51.540;7.364;2023-02-01T04:28:09;13.70;91.70
4908;DHT22;64375;51.540;7.364;2023-02-01T04:30:40;14.00;91.90
4908;DHT22;64375;51.540;7.364;2023-02-01T04:33:08;14.00;91.70
4908;DHT22;64375;51.540;7.364;2023-02-01T04:35:38;13.80;87.20
4908;DHT22;64375;51.540;7.364;2023-02-01T04:38:06;13.60;88.40
4908;DHT22;64375;51.540;7.364;2023-02-01T04:40:36;13.20;87.90
4908;DHT22;64375;51.540;7.364;2023-02-01T04:43:04;13.10;85.40
4908;DHT22;64375;51.540;7.364;2023-02-01T04:45:32;13.30;92.30
4908;DHT22;64375;51.540;7.364;2023-02-01T04:48:00;13.60;92.20
4908;DHT22;64375;51.540;7.364;2023-02-01T04:50:30;13.70;92.00
4908;DHT22;64375;51.540;7.364;2023-02-01T04:53:04;13.80;91.50
4908;DHT22;64375;51.540;7.364;2023-02-01T04:55:36;13.60;88.10
4908;DHT22;64375;51.540;7.364;2023-02-01T04:58:07;13.60;91.90
4908;DHT22;64375;51.540;7.364;2023-02-01T05:00:35;13.80;91.90
4908;DHT22;64375;51.540;7.364;2023-02-01T05:03:12;13.80;91.10
4908;DHT22;64375;51.540;7.364;2023-02-01T05:05:42;13.70;91.60
4908;DHT22;64375;51.540;7.364;2023-02-01T05:08:10;13.70;91.40
4908;DHT22;64375;51.540;7.364;2023-02-01T05:10:42;13.80;91.80
4908;DHT22;64375;51.540;7.364;2023-02-01T05:13:10;13.70;91.00
4908;DHT22;64375;51.540;7.364;2023-02-01T05:16:01;13.80;91.10
4908;DHT22;64375;51.540;7.364;2023-02-01T05:18:32;13.40;89.40
4908;DHT22;64375;51.540;7.364;2023-02-01T05:21:00;13.50;90.50
4908;DHT22;64375;51.540;7.364;2023-02-01T05:23:40;13.60;91.80
4908;DHT22;64375;51.540;7.364;2023-02-01T05:26:28;13.90;91.30
4908;DHT22;64375;51.540;7.364;2023-02-01T05:29:02;14.00;91.70
4908;DHT22;64375;51.540;7.364;2023-02-01T05:31:32;14.00;91.10
4908;DHT22;64375;51.540;7.364;2023-02-01T05:34:09;14.10;91.50
4908;DHT22;64375;51.540;7.364;2023-02-01T05:36:41;14.00;91.30
4908;DHT22;64375;51.540;7.364;2023-02-01T05:39:11;14.00;91.30
4908;DHT22;64375;51.540;7.364;2023-02-01T05:41:49;13.70;90.50
4908;DHT22;64375;51.540;7.364;2023-02-01T05:44:17;13.70;91.10
4908;DHT22;64375;51.540;7.364;2023-02-01T05:46:47;13.90;91.70
4908;DHT22;64375;51.540;7.364;2023-02-01T05:49:21;14.20;91.20
4908;DHT22;64375;51.540;7.364;2023-02-01T05:51:52;14.20;90.40
4908;DHT22;64375;51.540;7.364;2023-02-01T05:54:20;14.20;91.40
4908;DHT22;64375;51.540;7.364;2023-02-01T05:56:52;14.20;91.20
4908;DHT22;64375;51.540;7.364;2023-02-01T05:59:27;14.30;90.70
4908;DHT22;64375;51.540;7.364;2023-02-01T06:01:54;14.40;90.60
4908;DHT22;64375;51.540;7.364;2023-02-01T06:04:23;14.30;89.20
4908;DHT22;64375;51.540;7.364;2023-02-01T06:06:57;14.10;90.30
4908;DHT22;64375;51.540;7.364;2023-02-01T06:09:27;13.80;90.90
4908;DHT22;64375;51.540;7.364;2023-02-01T06:12:14;13.70;87.90
4908;DHT22;64375;51.540;7.364;2023-02-01T06:14:42;13.70;89.00
4908;DHT22;64375;51.540;7.364;2023-02-01T06:17:10;13.90;91.30
4908;DHT22;64375;51.540;7.364;2023-02-01T06:19:38;13.60;86.20
4908;DHT22;64375;51.540;7.364;2023-02-01T06:22:07;13.70;91.10
4908;DHT22;64375;51.540;7.364;2023-02-01T06:24:34;13.80;87.50
4908;DHT22;64375;51.540;7.364;2023-02-01T06:27:05;13.40;89.40
4908;DHT22;64375;51.540;7.364;2023-02-01T06:29:35;13.60;90.10
4908;DHT22;64375;51.540;7.364;2023-02-01T06:32:03;13.60;89.40
4908;DHT22;64375;51.540;7.364;2023-02-01T06:34:36;13.60;89.10
4908;DHT22;64375;51.540;7.364;2023-02-01T06:37:06;13.70;86.80
4908;DHT22;64375;51.540;7.364;2023-02-01T06:39:37;13.90;90.40
4908;DHT22;64375;51.540;7.364;2023-02-01T06:42:07;13.90;90.80
4908;DHT22;64375;51.540;7.364;2023-02-01T06:44:36;14.10;90.50
4908;DHT22;64375;51.540;7.364;2023-02-01T06:47:04;14.00;86.40
4908;DHT22;64375;51.540;7.364;2023-02-01T06:49:35;14.00;90.90
4908;DHT22;64375;51.540;7.364;2023-02-01T06:52:03;14.10;90.80
4908;DHT22;64375;51.540;7.364;2023-02-01T06:54:31;13.90;90.00
4908;DHT22;64375;51.540;7.364;2023-02-01T06:57:03;14.10;90.70
4908;DHT22;64375;51.540;7.364;2023-02-01T06:59:31;14.00;90.60
4908;DHT22;64375;51.540;7.364;2023-02-01T07:02:00;14.10;90.10
4908;DHT22;64375;51.540;7.364;2023-02-01T07:04:31;13.90;88.80
4908;DHT22;64375;51.540;7.364;2023-02-01T07:06:59;13.60;89.00
4908;DHT22;64375;51.540;7.364;2023-02-01T07:09:29;13.40;90.00
4908;DHT22;64375;51.540;7.364;2023-02-01T07:12:04;13.70;90.40
4908;DHT22;64375;51.540;7.364;2023-02-01T07:14:32;13.70;90.10
4908;DHT22;64375;51.540;7.364;2023-02-01T07:17:01;13.90;90.10
4908;DHT22;64375;51.540;7.364;2023-02-01T07:19:29;14.10;90.00
4908;DHT22;64375;51.540;7.364;2023-02-01T07:22:06;13.80;84.30
4908;DHT22;64375;51.540;7.364;2023-02-01T07:24:37;13.50;88.80
4908;DHT22;64375;51.540;7.364;2023-02-01T07:27:07;13.60;89.30
4908;DHT22;64375;51.540;7.364;2023-02-01T07:29:38;13.80;90.30
4908;DHT22;64375;51.540;7.364;2023-02-01T07:32:10;13.50;90.80
4908;DHT22;64375;51.540;7.364;2023-02-01T07:34:40;13.80;91.00
4908;DHT22;64375;51.540;7.364;2023-02-01T07:37:08;13.80;90.10
4908;DHT22;64375;51.540;7.364;2023-02-01T07:39:36;13.90;90.70
4908;DHT22;64375;51.540;7.364;2023-02-01T07:42:04;14.10;90.70
4908;DHT22;64375;51.540;7.364;2023-02-01T07:44:48;14.10;84.60
4908;DHT22;64375;51.540;7.364;2023-02-01T07:47:17;14.10;90.90
4908;DHT22;64375;51.540;7.364;2023-02-01T07:49:54;14.40;90.90
4908;DHT22;64375;51.540;7.364;2023-02-01T07:52:28;14.10;86.60
4908;DHT22;64375;51.540;7.364;2023-02-01T07:54:56;14.10;90.90
4908;DHT22;64375;51.540;7.364;2023-02-01T07:57:24;14.20;89.30
4908;DHT22;64375;51.540;7.364;2023-02-01T07:59:52;14.20;90.80
4908;DHT22;64375;51.540;7.364;2023-02-01T08:02:38;14.10;89.80
4908;DHT22;64375;51.540;7.364;2023-02-01T08:05:07;13.80;87.40
4908;DHT22;64375;51.540;7.364;2023-02-01T08:07:38;13.70;86.50
4908;DHT22;64375;51.540;7.364;2023-02-01T08:10:09;14.00;87.90
4908;DHT22;64375;51.540;7.364;2023-02-01T08:12:38;13.90;86.40
4908;DHT22;64375;51.540;7.364;2023-02-01T08:15:07;13.90;89.10
4908;DHT22;64375;51.540;7.364;2023-02-01T08:17:41;14.00;88.80
4908;DHT22;64375;51.540;7.364;2023-02-01T08:20:13;14.10;89.10
4908;DHT22;64375;51.540;7.364;2023-02-01T08:22:41;14.30;90.00
4908;DHT22;64375;51.540;7.364;2023-02-01T08:25:10;14.30;85.30
4908;DHT22;64375;51.540;7.364;2023-02-01T08:27:38;14.00;87.50
4908;DHT22;64375;51.540;7.364;2023-02-01T08:30:10;13.80;90.00
4908;DHT22;64375;51.540;7.364;2023-02-01T08:32:39;13.90;90.60
4908;DHT22;64375;51.540;7.364;2023-02-01T08:35:10;14.20;90.50
4908;DHT22;64375;51.540;7.364;2023-02-01T08:37:38;14.30;90.20
4908;DHT22;64375;51.540;7.364;2023-02-01T08:40:07;14.40;90.10
4908;DHT22;64375;51.540;7.364;2023-02-01T08:42:35;14.30;90.20
4908;DHT22;64375;51.540;7.364;2023-02-01T08:45:18;14.10;90.50
4908;DHT22;64375;51.540;7.364;2023-02-01T08:47:52;14.30;89.50
4908;DHT22;64375;51.540;7.364;2023-02-01T08:50:23;14.20;87.90
4908;DHT22;64375;51.540;7.364;2023-02-01T08:52:52;14.30;87.90
4908;DHT22;64375;51.540;7.364;2023-02-01T08:55:27;14.30;90.30
4908;DHT22;64375;51.540;7.364;2023-02-01T08:57:56;14.40;90.60
4908;DHT22;64375;51.540;7.364;2023-02-01T09:00:26;14.60;90.30
4908;DHT22;64375;51.540;7.364;2023-02-01T09:02:59;14.60;90.20
4908;DHT22;64375;51.540;7.364;2023-02-01T09:05:30;14.70;87.80
4908;DHT22;64375;51.540;7.364;2023-02-01T09:08:14;14.50;88.10
4908;DHT22;64375;51.540;7.364;2023-02-01T09:10:42;14.60;90.10
4908;DHT22;64375;51.540;7.364;2023-02-01T09:13:10;14.50;87.00
4908;DHT22;64375;51.540;7.364;2023-02-01T09:15:38;14.50;89.00
4908;DHT22;64375;51.540;7.364;2023-02-01T09:18:07;14.50;90.20
4908;DHT22;64375;51.540;7.364;2023-02-01T09:20:44;14.50;90.40
4908;DHT22;64375;51.540;7.364;2023-02-01T09:23:20;14.40;90.00
4908;DHT22;64375;51.540;7.364;2023-02-01T09:25:51;14.20;91.00
4908;DHT22;64375;51.540;7.364;2023-02-01T09:28:26;14.40;90.60
4908;DHT22;64375;51.540;7.364;2023-02-01T09:30:56;14.60;90.60
4908;DHT22;64375;51.540;7.364;2023-02-01T09:33:26;14.70;89.40
4908;DHT22;64375;51.540;7.364;2023-02-01T09:35:56;14.30;89.80
4908;DHT22;64375;51.540;7.364;2023-02-01T09:38:24;14.50;90.70
4908;DHT22;64375;51.540;7.364;2023-02-01T09:40:54;14.60;90.50
4908;DHT22;64375;51.540;7.364;2023-02-01T09:43:34;14.80;90.40
4908;DHT22;64375;51.540;7.364;2023-02-01T09:46:24;14.80;90.70
4908;DHT22;64375;51.540;7.364;2023-02-01T09:48:56;14.60;88.00
4908;DHT22;64375;51.540;7.364;2023-02-01T09:51:32;14.80;90.40
4908;DHT22;64375;51.540;7.364;2023-02-01T09:54:03;14.80;90.30
4908;DHT22;64375;51.540;7.364;2023-02-01T09:56:36;14.70;89.30
4908;DHT22;64375;51.540;7.364;2023-02-01T09:59:15;14.60;90.10
4908;DHT22;64375;51.540;7.364;2023-02-01T10:01:56;14.60;89.10
4908;DHT22;64375;51.540;7.364;2023-02-01T10:04:27;14.50;88.10
4908;DHT22;64375;51.540;7.364;2023-02-01T10:07:13;14.30;89.80
4908;DHT22;64375;51.540;7.364;2023-02-01T10:09:52;14.20;90.50
4908;DHT22;64375;51.540;7.364;2023-02-01T10:13:03;14.40;90.80
4908;DHT22;64375;51.540;7.364;2023-02-01T10:15:52;14.80;90.50
4908;DHT22;64375;51.540;7.364;2023-02-01T10:18:36;14.90;89.60
4908;DHT22;64375;51.540;7.364;2023-02-01T10:21:16;14.90;88.10
4908;DHT22;64375;51.540;7.364;2023-02-01T10:24:10;15.00;89.80
4908;DHT22;64375;51.540;7.364;2023-02-01T10:26:46;14.70;89.70
4908;DHT22;64375;51.540;7.364;2023-02-01T10:29:17;14.50;88.20
4908;DHT22;64375;51.540;7.364;2023-02-01T10:31:46;14.20;90.30
4908;DHT22;64375;51.540;7.364;2023-02-01T10:34:18;14.40;90.80
4908;DHT22;64375;51.540;7.364;2023-02-01T10:36:55;14.50;90.80
4908;DHT22;64375;51.540;7.364;2023-02-01T10:39:24;14.70;90.20
4908;DHT22;64375;51.540;7.364;2023-02-01T10:41:54;14.70;90.30
4908;DHT22;64375;51.540;7.364;2023-02-01T10:44:26;14.70;90.50
4908;DHT22;64375;51.540;7.364;2023-02-01T10:46:55;14.50;86.80
4908;DHT22;64375;51.540;7.364;2023-02-01T10:49:29;14.50;86.60
4908;DHT22;64375;51.540;7.364;2023-02-01T10:52:07;13.80;90.10
4908;DHT22;64375;51.540;7.364;2023-02-01T10:54:40;13.90;89.10
4908;DHT22;64375;51.540;7.364;2023-02-01T10:57:09;13.90;91.30
4908;DHT22;64375;51.540;7.364;2023-02-01T10:59:37;14.20;88.60
4908;DHT22;64375;51.540;7.364;2023-02-01T11:02:19;13.80;90.40
4908;DHT22;64375;51.540;7.364;2023-02-01T11:04:48;13.90;90.60
4908;DHT22;64375;51.540;7.364;2023-02-01T11:07:23;14.00;91.20
4908;DHT22;64375;51.540;7.364;2023-02-01T11:09:54;14.30;91.00
4908;DHT22;64375;51.540;7.364;2023-02-01T11:12:33;14.50;90.80
4908;DHT22;64375;51.540;7.364;2023-02-01T11:15:15;14.60;91.00
4908;DHT22;64375;51.540;7.364;2023-02-01T11:17:47;14.80;90.80
4908;DHT22;64375;51.540;7.364;2023-02-01T11:20:20;14.60;84.30
4908;DHT22;64375;51.540;7.364;2023-02-01T11:22:55;14.60;90.50
4908;DHT22;64375;51.540;7.364;2023-02-01T11:25:24;14.60;90.50
4908;DHT22;64375;51.540;7.364;2023-02-01T11:27:55;14.80;90.10
4908;DHT22;64375;51.540;7.364;2023-02-01T11:30:31;14.90;90.50
4908;DHT22;64375;51.540;7.364;2023-02-01T11:33:00;15.00;90.30
4908;DHT22;64375;51.540;7.364;2023-02-01T11:35:32;15.00;90.40
4908;DHT22;64375;51.540;7.364;2023-02-01T11:38:11;15.10;90.40
4908;DHT22;64375;51.540;7.364;2023-02-01T11:40:41;15.00;84.50
4908;DHT22;64375;51.540;7.364;2023-02-01T11:43:16;15.00;90.30
4908;DHT22;64375;51.540;7.364;2023-02-01T11:45:54;15.10;90.40
4908;DHT22;64375;51.540;7.364;2023-02-01T11:48:24;14.70;88.30
4908;DHT22;64375;51.540;7.364;2023-02-01T11:51:01;14.40;85.20
4908;DHT22;64375;51.540;7.364;2023-02-01T11:53:54;14.60;87.10
4908;DHT22;64375;51.540;7.364;2023-02-01T11:56:33;14.50;87.50
4908;DHT22;64375;51.540;7.364;2023-02-01T11:59:19;14.20;86.40
4908;DHT22;64375;51.540;7.364;2023-02-01T12:01:59;14.40;88.60
4908;DHT22;64375;51.540;7.364;2023-02-01T12:07:56;14.80;89.30
4908;DHT22;64375;51.540;7.364;2023-02-01T12:10:36;14.90;90.10
4908;DHT22;64375;51.540;7.364;2023-02-01T12:13:18;14.80;90.00
4908;DHT22;64375;51.540;7.364;2023-02-01T12:16:06;14.90;90.10
4908;DHT22;64375;51.540;7.364;2023-02-01T12:19:11;15.00;89.20
4908;DHT22;64375;51.540;7.364;2023-02-01T12:22:05;14.30;89.30
4908;DHT22;64375;51.540;7.364;2023-02-01T12:27:55;14.40;89.60
4908;DHT22;64375;51.540;7.364;2023-02-01T12:30:56;14.50;90.80
4908;DHT22;64375;51.540;7.364;2023-02-01T12:33:39;14.60;90.30
4908;DHT22;64375;51.540;7.364;2023-02-01T12:36:18;14.20;90.40
4908;DHT22;64375;51.540;7.364;2023-02-01T12:38:53;13.90;90.60
4908;DHT22;64375;51.540;7.364;2023-02-01T12:41:36;14.00;89.70
4908;DHT22;64375;51.540;7.364;2023-02-01T12:44:13;14.10;91.30
4908;DHT22;64375;51.540;7.364;2023-02-01T12:46:46;14.20;90.20
4908;DHT22;64375;51.540;7.364;2023-02-01T12:49:19;14.30;91.00
4908;DHT22;64375;51.540;7.364;2023-02-01T12:52:04;14.40;86.70
4908;DHT22;64375;51.540;7.364;2023-02-01T12:54:49;14.30;90.90
4908;DHT22;64375;51.540;7.364;2023-02-01T12:57:23;14.30;91.00
4908;DHT22;64375;51.540;7.364;2023-02-01T13:00:04;14.50;90.60
4908;DHT22;64375;51.540;7.364;2023-02-01T13:02:40;14.40;90.90
4908;DHT22;64375;51.540;7.364;2023-02-01T13:05:17;14.50;90.00
4908;DHT22;64375;51.540;7.364;2023-02-01T13:07:50;14.80;90.90
4908;DHT22;64375;51.540;7.364;2023-02-01T13:10:27;14.60;87.50
4908;DHT22;64375;51.540;7.364;2023-02-01T13:13:02;14.70;91.00
4908;DHT22;64375;51.540;7.364;2023-02-01T13:15:37;14.90;90.60
4908;DHT22;64375;51.540;7.364;2023-02-01T13:18:13;15.00;90.30
4908;DHT22;64375;51.540;7.364;2023-02-01T13:20:52;14.80;89.20
4908;DHT22;64375;51.540;7.364;2023-02-01T13:23:26;14.80;89.90
4908;DHT22;64375;51.540;7.364;2023-02-01T13:25:55;14.50;90.70
4908;DHT22;64375;51.540;7.364;2023-02-01T13:28:39;14.80;90.60
4908;DHT22;64375;51.540;7.364;2023-02-01T13:31:35;14.80;90.80
4908;DHT22;64375;51.540;7.364;2023-02-01T13:40:36;14.90;90.60
4908;DHT22;64375;51.540;7.364;2023-02-01T13:43:13;15.00;90.20
4908;DHT22;64375;51.540;7.364;2023-02-01T13:45:46;14.80;90.40
4908;DHT22;64375;51.540;7.364;2023-02-01T13:48:34;14.80;87.90
4908;DHT22;64375;51.540;7.364;2023-02-01T13:51:07;14.90;90.50
4908;DHT22;64375;51.540;7.364;2023-02-01T13:53:52;15.00;90.50
4908;DHT22;64375;51.540;7.364;2023-02-01T13:56:22;15.00;90.10
4908;DHT22;64375;51.540;7.364;2023-02-01T13:58:52;15.10;90.60
4908;DHT22;64375;51.540;7.364;2023-02-01T14:01:38;15.00;90.00
4908;DHT22;64375;51.540;7.364;2023-02-01T14:07:19;15.00;90.40
4908;DHT22;64375;51.540;7.364;2023-02-01T14:09:48;15.10;89.80
4908;DHT22;64375;51.540;7.364;2023-02-01T14:12:50;15.20;90.10
4908;DHT22;64375;51.540;7.364;2023-02-01T14:15:36;15.30;90.40
4908;DHT22;64375;51.540;7.364;2023-02-01T14:21:26;15.00;90.40
4908;DHT22;64375;51.540;7.364;2023-02-01T14:24:02;15.10;90.50
4908;DHT22;64375;51.540;7.364;2023-02-01T14:26:44;14.90;90.20
4908;DHT22;64375;51.540;7.364;2023-02-01T14:29:35;15.00;90.70
4908;DHT22;64375;51.540;7.364;2023-02-01T14:32:06;15.00;90.40
4908;DHT22;64375;51.540;7.364;2023-02-01T14:34:50;15.10;90.50
4908;DHT22;64375;51.540;7.364;2023-02-01T14:37:28;15.30;89.60
4908;DHT22;64375;51.540;7.364;2023-02-01T14:40:00;15.30;90.40
4908;DHT22;64375;51.540;7.364;2023-02-01T14:42:39;15.30;90.40
4908;DHT22;64375;51.540;7.364;2023-02-01T14:48:44;15.20;90.60
4908;DHT22;64375;51.540;7.364;2023-02-01T14:51:15;15.20;89.80
4908;DHT22;64375;51.540;7.364;2023-02-01T14:53:44;15.20;90.40
4908;DHT22;64375;51.540;7.364;2023-02-01T14:56:17;15.10;90.20
4908;DHT22;64375;51.540;7.364;2023-02-01T14:58:56;15.10;90.60
4908;DHT22;64375;51.540;7.364;2023-02-01T15:01:29;15.10;89.80
4908;DHT22;64375;51.540;7.364;2023-02-01T15:04:04;15.20;90.40
4908;DHT22;64375;51.540;7.364;2023-02-01T15:06:38;15.30;90.70
4908;DHT22;64375;51.540;7.364;2023-02-01T15:09:10;15.20;90.20
4908;DHT22;64375;51.540;7.364;2023-02-01T15:12:01;15.30;90.30
4908;DHT22;64375;51.540;7.364;2023-02-01T15:14:34;15.30;90.50
4908;DHT22;64375;51.540;7.364;2023-02-01T15:17:18;15.40;90.20
4908;DHT22;64375;51.540;7.364;2023-02-01T15:19:53;15.20;89.30
4908;DHT22;64375;51.540;7.364;2023-02-01T15:22:22;15.00;87.50
4908;DHT22;64375;51.540;7.364;2023-02-01T15:24:52;15.20;90.00
4908;DHT22;64375;51.540;7.364;2023-02-01T15:27:22;15.10;89.40
4908;DHT22;64375;51.540;7.364;2023-02-01T15:29:50;15.10;90.20
4908;DHT22;64375;51.540;7.364;2023-02-01T15:32:28;14.90;89.40
4908;DHT22;64375;51.540;7.364;2023-02-01T15:34:58;15.00;90.40
4908;DHT22;64375;51.540;7.364;2023-02-01T15:37:27;15.10;90.60
4908;DHT22;64375;51.540;7.364;2023-02-01T15:40:18;15.00;90.70
4908;DHT22;64375;51.540;7.364;2023-02-01T15:42:52;15.00;90.60
4908;DHT22;64375;51.540;7.364;2023-02-01T15:45:25;15.10;90.00
4908;DHT22;64375;51.540;7.364;2023-02-01T15:47:55;15.10;88.70
4908;DHT22;64375;51.540;7.364;2023-02-01T15:50:31;15.00;87.70
4908;DHT22;64375;51.540;7.364;2023-02-01T15:52:59;15.00;89.90
4908;DHT22;64375;51.540;7.364;2023-02-01T15:55:36;14.90;90.00
4908;DHT22;64375;51.540;7.364;2023-02-01T15:58:15;14.80;89.90
4908;DHT22;64375;51.540;7.364;2023-02-01T16:00:46;14.80;90.70
4908;DHT22;64375;51.540;7.364;2023-02-01T16:03:36;14.80;90.20
4908;DHT22;64375;51.540;7.364;2023-02-01T16:06:27;14.60;90.50
4908;DHT22;64375;51.540;7.364;2023-02-01T16:09:01;14.50;91.00
4908;DHT22;64375;51.540;7.364;2023-02-01T16:11:31;14.70;90.90
4908;DHT22;64375;51.540;7.364;2023-02-01T16:14:01;15.00;90.90
4908;DHT22;64375;51.540;7.364;2023-02-01T16:16:29;14.90;87.40
4908;DHT22;64375;51.540;7.364;2023-02-01T16:18:57;14.60;90.60
4908;DHT22;64375;51.540;7.364;2023-02-01T16:21:30;14.80;90.60
4908;DHT22;64375;51.540;7.364;2023-02-01T16:24:01;14.80;90.40
4908;DHT22;64375;51.540;7.364;2023-02-01T16:26:31;14.90;90.70
4908;DHT22;64375;51.540;7.364;2023-02-01T16:29:05;15.00;90.70
4908;DHT22;64375;51.540;7.364;2023-02-01T16:31:36;15.00;89.90
4908;DHT22;64375;51.540;7.364;2023-02-01T16:34:05;15.20;90.90
4908;DHT22;64375;51.540;7.364;2023-02-01T16:36:33;15.30;90.80
4908;DHT22;64375;51.540;7.364;2023-02-01T16:39:04;15.40;90.90
4908;DHT22;64375;51.540;7.364;2023-02-01T16:41:36;15.30;88.40
4908;DHT22;64375;51.540;7.364;2023-02-01T16:44:13;15.30;90.60
4908;DHT22;64375;51.540;7.364;2023-02-01T16:46:42;15.20;91.10
4908;DHT22;64375;51.540;7.364;2023-02-01T16:49:18;15.30;90.60
4908;DHT22;64375;51.540;7.364;2023-02-01T16:51:51;15.20;90.80
4908;DHT22;64375;51.540;7.364;2023-02-01T16:54:22;15.00;89.80
4908;DHT22;64375;51.540;7.364;2023-02-01T16:56:56;14.90;91.50
4908;DHT22;64375;51.540;7.364;2023-02-01T16:59:26;14.90;90.30
4908;DHT22;64375;51.540;7.364;2023-02-01T17:01:53;14.40;91.20
4908;DHT22;64375;51.540;7.364;2023-02-01T17:04:21;14.40;91.10
4908;DHT22;64375;51.540;7.364;2023-02-01T17:06:55;14.40;91.10